Time;durP1;ratioP1;P1;durP2;ratioP2;P2;SDS_P1;SDS_P2;PMS_P1;PMS_P2;Temp;Humidity;BMP_temperature;BMP_pressure;BME280_temperature;BME280_humidity;BME280_pressure;Samples;Min_cycle;Max_cycle;Signal;HPM_P1;HPM_P2
2023/07/02 00:01:45;;;;;;;111.32;105.20;;;15.50;99.90;;;;;;5040325;28;20041;-70
2023/07/02 00:04:15;;;;;;;113.32;106.68;;;15.50;99.90;;;;;;5025729;28;20091;-70
2023/07/02 00:06:44;;;;;;;101.40;95.80;;;15.50;99.90;;;;;;5021303;28;20041;-69
2023/07/02 00:09:11;;;;;;;103.20;97.47;;;15.40;99.90;;;;;;5017489;28;20049;-70
2023/07/02 00:11:41;;;;;;;102.93;97.60;;;15.50;99.90;;;;;;5029406;28;20037;-70
2023/07/02 00:14:08;;;;;;;105.20;99.28;;;15.40;99.90;;;;;;5016985;28;20121;-70
2023/07/02 00:16:35;;;;;;;112.20;106.40;;;15.40;99.90;;;;;;5026051;28;20045;-70
2023/07/02 00:19:01;;;;;;;108.97;103.13;;;15.40;99.90;;;;;;5007267;28;20037;-70
2023/07/02 00:21:27;;;;;;;116.35;110.43;;;15.40;99.90;;;;;;5027418;28;20119;-70
2023/07/02 00:23:54;;;;;;;112.82;106.97;;;15.40;99.90;;;;;;5010895;28;20045;-70
2023/07/02 00:26:20;;;;;;;103.43;97.88;;;15.40;99.90;;;;;;5026750;28;20056;-70
2023/07/02 00:28:45;;;;;;;114.68;108.28;;;15.40;99.90;;;;;;5000288;28;20497;-70
2023/07/02 00:31:11;;;;;;;115.65;109.25;;;15.40;99.90;;;;;;5022484;28;20043;-70
2023/07/02 00:33:37;;;;;;;128.65;121.85;;;15.40;99.90;;;;;;5011146;28;20398;-70
2023/07/02 00:36:02;;;;;;;111.93;105.65;;;15.30;99.90;;;;;;5025814;28;20046;-70
2023/07/02 00:38:28;;;;;;;116.93;110.97;;;15.30;99.90;;;;;;5024027;28;20117;-70
2023/07/02 00:40:54;;;;;;;112.35;106.20;;;15.30;99.90;;;;;;5026624;28;20049;-70
2023/07/02 00:43:19;;;;;;;115.22;108.55;;;15.30;99.90;;;;;;5024336;28;20061;-70
2023/07/02 00:45:45;;;;;;;143.13;135.32;;;15.30;99.90;;;;;;5020533;28;20131;-70
2023/07/02 00:48:11;;;;;;;142.05;134.13;;;15.30;99.90;;;;;;5036823;28;20045;-70
2023/07/02 00:50:39;;;;;;;146.85;138.90;;;15.20;99.90;;;;;;5009643;28;20091;-70
2023/07/02 00:53:04;;;;;;;137.38;130.00;;;15.20;99.90;;;;;;5026856;28;20072;-70
2023/07/02 00:55:30;;;;;;;143.30;135.73;;;15.20;99.90;;;;;;5021527;28;20041;-70
2023/07/02 00:57:56;;;;;;;142.38;135.23;;;15.20;99.90;;;;;;5026002;28;20052;-70
2023/07/02 01:00:22;;;;;;;147.90;139.77;;;15.20;99.90;;;;;;5021066;28;20037;-70
2023/07/02 01:02:58;;;;;;;136.55;129.43;;;15.20;99.90;;;;;;5027288;28;20045;-70
2023/07/02 01:05:35;;;;;;;146.70;139.02;;;15.20;99.90;;;;;;5039397;28;20049;-70
2023/07/02 01:08:02;;;;;;;144.38;136.98;;;15.10;99.90;;;;;;5031242;28;20060;-70
2023/07/02 01:10:28;;;;;;;156.25;148.20;;;15.10;99.90;;;;;;5025010;28;20126;-70
2023/07/02 01:12:55;;;;;;;156.27;148.50;;;15.10;99.90;;;;;;5024239;28;20195;-71
2023/07/02 01:15:21;;;;;;;146.70;138.93;;;15.00;99.90;;;;;;5024348;28;20037;-70
2023/07/02 01:17:48;;;;;;;153.60;145.48;;;15.00;99.90;;;;;;5023677;28;20197;-69
2023/07/02 01:20:14;;;;;;;131.63;124.70;;;14.90;99.90;;;;;;5021972;28;20539;-70
2023/07/02 01:22:40;;;;;;;142.60;135.23;;;14.90;99.90;;;;;;5039699;28;20045;-70
2023/07/02 01:25:08;;;;;;;140.07;132.10;;;14.90;99.90;;;;;;5021923;28;20387;-70
2023/07/02 01:27:35;;;;;;;141.23;133.35;;;14.90;99.90;;;;;;5025162;28;20060;-70
2023/07/02 01:30:01;;;;;;;152.15;144.23;;;14.80;99.90;;;;;;5023200;28;20052;-69
2023/07/02 01:32:27;;;;;;;141.43;134.23;;;14.80;99.90;;;;;;5026155;28;20057;-70
2023/07/02 01:34:53;;;;;;;152.75;144.65;;;14.70;99.90;;;;;;5043111;28;20125;-70
2023/07/02 01:37:19;;;;;;;152.60;144.45;;;14.60;99.90;;;;;;5024556;28;20508;-70
2023/07/02 01:39:44;;;;;;;153.65;145.80;;;14.60;99.90;;;;;;5023794;28;20049;-70
2023/07/02 01:42:12;;;;;;;139.98;132.20;;;14.50;99.90;;;;;;5007986;28;20052;-70
2023/07/02 01:44:38;;;;;;;157.35;148.85;;;14.50;99.90;;;;;;5023542;28;20163;-70
2023/07/02 01:47:04;;;;;;;166.98;158.45;;;14.40;99.90;;;;;;5037279;28;20133;-70
2023/07/02 01:49:31;;;;;;;156.90;149.15;;;14.40;99.90;;;;;;5038067;28;20520;-70
2023/07/02 01:51:57;;;;;;;150.25;142.35;;;14.40;99.90;;;;;;5017832;28;20042;-70
2023/07/02 01:54:24;;;;;;;168.80;160.00;;;14.30;99.90;;;;;;5022576;28;20045;-70
2023/07/02 01:56:50;;;;;;;177.05;167.95;;;14.30;99.90;;;;;;5023886;28;20428;-70
2023/07/02 01:59:16;;;;;;;177.88;169.05;;;14.30;99.90;;;;;;5022360;28;20053;-70
2023/07/02 02:01:42;;;;;;;190.38;180.90;;;14.20;99.90;;;;;;5026663;28;20371;-70
2023/07/02 02:04:09;;;;;;;189.02;179.35;;;14.20;99.90;;;;;;5009149;28;20067;-70
2023/07/02 02:06:37;;;;;;;170.55;161.73;;;14.10;99.90;;;;;;5022247;28;20444;-70
2023/07/02 02:09:04;;;;;;;180.88;171.75;;;14.20;99.90;;;;;;5007639;28;20527;-70
2023/07/02 02:11:30;;;;;;;184.73;175.52;;;14.10;99.90;;;;;;5026423;28;20052;-70
2023/07/02 02:13:57;;;;;;;181.55;172.20;;;14.00;99.90;;;;;;5024114;28;20037;-70
2023/07/02 02:16:23;;;;;;;212.90;202.20;;;14.00;99.90;;;;;;5023549;28;20038;-70
2023/07/02 02:18:51;;;;;;;210.55;200.55;;;13.90;99.90;;;;;;5018764;28;20592;-70
2023/07/02 02:21:17;;;;;;;225.80;214.73;;;13.90;99.90;;;;;;5010259;28;20045;-70
2023/07/02 02:23:43;;;;;;;228.68;217.65;;;13.90;99.90;;;;;;5025563;28;20041;-70
2023/07/02 02:26:09;;;;;;;244.52;232.90;;;13.90;99.90;;;;;;5039717;28;20037;-70
2023/07/02 02:28:35;;;;;;;251.13;239.23;;;13.90;99.90;;;;;;5020762;28;20041;-70
2023/07/02 02:31:01;;;;;;;222.45;211.75;;;13.90;99.90;;;;;;5021724;28;20044;-70
2023/07/02 02:33:26;;;;;;;258.83;246.35;;;13.90;99.90;;;;;;5033981;28;20034;-70
2023/07/02 02:35:52;;;;;;;250.40;238.50;;;13.90;99.90;;;;;;5021730;28;20041;-70
2023/07/02 02:38:18;;;;;;;231.93;220.35;;;13.80;99.90;;;;;;5025395;28;20034;-70
2023/07/02 02:40:43;;;;;;;196.07;186.25;;;13.80;99.90;;;;;;5025210;28;20041;-69
2023/07/02 02:43:09;;;;;;;207.10;196.45;;;13.80;99.90;;;;;;5022758;28;20095;-69
2023/07/02 02:45:35;;;;;;;232.95;221.60;;;13.80;99.90;;;;;;5024361;28;20041;-70
2023/07/02 02:48:00;;;;;;;219.10;208.35;;;13.70;99.90;;;;;;5038743;28;20037;-70
2023/07/02 02:50:26;;;;;;;198.43;188.57;;;13.70;99.90;;;;;;5023565;28;20096;-69
2023/07/02 02:52:52;;;;;;;214.15;203.88;;;13.70;99.90;;;;;;5021047;28;20053;-70
2023/07/02 02:55:18;;;;;;;217.15;206.23;;;13.60;99.90;;;;;;5021779;28;20033;-70
2023/07/02 02:57:44;;;;;;;244.73;232.82;;;13.60;99.90;;;;;;5018538;28;20045;-70
2023/07/02 03:00:11;;;;;;;248.68;236.80;;;13.50;99.90;;;;;;5022644;28;20038;-69
2023/07/02 03:02:37;;;;;;;258.42;246.30;;;13.50;99.90;;;;;;5035709;28;20049;-69
2023/07/02 03:05:03;;;;;;;298.88;283.92;;;13.50;99.90;;;;;;5020716;28;20046;-70
2023/07/02 03:07:29;;;;;;;262.27;249.43;;;13.50;99.90;;;;;;5023215;28;20041;-70
2023/07/02 03:09:55;;;;;;;276.70;263.40;;;13.50;99.90;;;;;;5024158;28;21396;-70
2023/07/02 03:12:22;;;;;;;292.75;278.58;;;13.50;99.90;;;;;;5013864;28;20049;-70
2023/07/02 03:14:51;;;;;;;294.70;280.20;;;13.50;99.90;;;;;;5023288;28;20120;-70
2023/07/02 03:17:17;;;;;;;282.00;268.30;;;13.40;99.90;;;;;;5018847;28;20050;-69
2023/07/02 03:19:42;;;;;;;280.80;267.23;;;13.40;99.90;;;;;;5007088;28;20632;-70
2023/07/02 03:22:08;;;;;;;275.83;262.48;;;13.40;99.90;;;;;;5022964;28;20535;-70
2023/07/02 03:24:34;;;;;;;256.35;243.38;;;13.40;99.90;;;;;;5021858;28;20462;-69
2023/07/02 03:26:59;;;;;;;264.77;252.27;;;13.40;99.90;;;;;;5003415;28;20490;-70
2023/07/02 03:29:25;;;;;;;238.23;227.05;;;13.40;99.90;;;;;;5024484;28;20140;-69
2023/07/02 03:31:51;;;;;;;225.02;214.38;;;13.50;99.90;;;;;;5024040;28;20046;-70
2023/07/02 03:34:16;;;;;;;234.23;222.80;;;13.50;99.90;;;;;;5022243;28;20141;-70
2023/07/02 03:36:43;;;;;;;261.70;249.25;;;13.40;99.90;;;;;;5018643;28;20067;-70
2023/07/02 03:39:09;;;;;;;228.55;216.43;;;13.40;99.90;;;;;;5003972;28;20101;-70
2023/07/02 03:41:35;;;;;;;248.48;236.23;;;13.40;99.90;;;;;;5004631;28;20533;-70
2023/07/02 03:44:00;;;;;;;243.85;232.35;;;13.30;99.90;;;;;;5018497;28;20068;-70
2023/07/02 03:46:26;;;;;;;222.77;211.50;;;13.40;99.90;;;;;;5027162;28;20492;-70
2023/07/02 03:48:52;;;;;;;223.82;213.00;;;13.40;99.90;;;;;;5010776;28;20049;-69
2023/07/02 03:51:17;;;;;;;211.10;200.77;;;13.40;99.90;;;;;;5026861;28;20055;-70
2023/07/02 03:53:43;;;;;;;231.05;219.57;;;13.40;99.90;;;;;;5026010;28;20187;-70
2023/07/02 03:56:09;;;;;;;216.35;205.55;;;13.50;99.90;;;;;;5026745;28;20084;-70
2023/07/02 03:58:35;;;;;;;202.00;192.05;;;13.50;99.90;;;;;;5026924;28;20048;-70
2023/07/02 04:01:00;;;;;;;189.45;180.00;;;13.60;99.90;;;;;;5022343;28;20041;-69
2023/07/02 04:03:26;;;;;;;183.85;174.80;;;13.60;99.90;;;;;;5021169;28;20394;-69
2023/07/02 04:05:52;;;;;;;168.45;159.68;;;13.70;99.90;;;;;;5025170;28;20042;-70
2023/07/02 04:08:18;;;;;;;157.43;148.82;;;13.80;99.90;;;;;;5025360;28;20048;-70
2023/07/02 04:10:43;;;;;;;153.07;145.18;;;13.80;99.90;;;;;;5027711;28;20045;-69
2023/07/02 04:13:09;;;;;;;143.52;136.48;;;13.80;99.90;;;;;;5025324;28;20497;-70
2023/07/02 04:15:35;;;;;;;145.77;137.85;;;13.90;99.90;;;;;;5026897;28;20120;-70
2023/07/02 04:18:01;;;;;;;140.00;132.80;;;14.00;99.90;;;;;;5026678;28;20041;-70
2023/07/02 04:20:28;;;;;;;130.10;123.22;;;14.10;99.90;;;;;;5044433;28;20042;-70
2023/07/02 04:22:54;;;;;;;140.38;132.95;;;14.10;99.90;;;;;;5024334;28;20132;-70
2023/07/02 04:25:20;;;;;;;139.23;131.45;;;14.20;99.90;;;;;;5027014;28;20049;-70
2023/07/02 04:27:45;;;;;;;139.13;131.38;;;14.20;99.90;;;;;;5026468;28;20107;-70
2023/07/02 04:30:12;;;;;;;140.27;132.68;;;14.20;99.90;;;;;;5027111;28;20045;-69
2023/07/02 04:32:39;;;;;;;158.13;149.60;;;14.20;99.90;;;;;;5027557;28;20103;-69
2023/07/02 04:35:08;;;;;;;156.77;148.90;;;14.30;99.90;;;;;;5008777;28;20041;-70
2023/07/02 04:37:35;;;;;;;147.23;139.75;;;14.20;99.90;;;;;;5022987;28;20581;-70
2023/07/02 04:40:03;;;;;;;144.85;137.20;;;14.20;99.90;;;;;;5011242;28;20532;-70
2023/07/02 04:42:31;;;;;;;149.23;141.13;;;14.20;99.90;;;;;;5023627;28;20148;-70
2023/07/02 04:45:02;;;;;;;146.50;138.52;;;14.30;99.90;;;;;;5023920;28;20049;-70
2023/07/02 04:47:29;;;;;;;141.25;133.80;;;14.30;99.90;;;;;;5027489;28;20167;-70
2023/07/02 04:49:54;;;;;;;147.48;139.73;;;14.40;99.90;;;;;;5009397;28;20056;-69
2023/07/02 04:52:20;;;;;;;140.32;132.82;;;14.50;99.90;;;;;;5009112;28;20037;-70
2023/07/02 04:54:45;;;;;;;134.82;127.80;;;14.60;99.90;;;;;;5018809;28;20045;-70
2023/07/02 04:57:13;;;;;;;130.98;124.38;;;14.70;99.90;;;;;;5026480;28;20432;-70
2023/07/02 04:59:39;;;;;;;134.07;127.32;;;14.70;99.90;;;;;;5035390;28;20356;-70
2023/07/02 05:02:04;;;;;;;143.68;136.27;;;14.80;99.90;;;;;;5037972;28;20068;-70
2023/07/02 05:04:30;;;;;;;139.85;132.93;;;15.00;99.90;;;;;;5026080;28;20087;-70
2023/07/02 05:06:56;;;;;;;171.05;161.80;;;15.20;99.90;;;;;;5025982;28;20057;-69
2023/07/02 05:09:21;;;;;;;121.72;115.32;;;15.40;99.90;;;;;;5019172;28;20478;-70
2023/07/02 05:11:47;;;;;;;106.75;100.97;;;15.50;99.90;;;;;;5022781;28;20045;-70
2023/07/02 05:14:12;;;;;;;130.93;124.53;;;15.50;99.90;;;;;;5024738;28;20037;-70
2023/07/02 05:16:38;;;;;;;127.65;121.20;;;15.50;99.90;;;;;;5023385;28;20044;-70
2023/07/02 05:19:04;;;;;;;68.53;64.05;;;15.50;99.90;;;;;;5019829;28;20057;-70
2023/07/02 05:21:29;;;;;;;91.55;86.30;;;15.50;99.90;;;;;;5022297;28;20129;-71
2023/07/02 05:23:55;;;;;;;90.00;85.00;;;15.50;99.90;;;;;;5027742;28;20501;-70
2023/07/02 05:26:21;;;;;;;103.63;97.88;;;15.50;99.90;;;;;;5025859;28;20048;-69
2023/07/02 05:28:48;;;;;;;197.52;185.00;;;15.40;99.90;;;;;;5008491;28;20073;-70
2023/07/02 05:31:13;;;;;;;135.68;129.07;;;15.50;99.90;;;;;;5007183;28;20041;-70
2023/07/02 05:33:39;;;;;;;100.97;95.78;;;15.70;99.90;;;;;;5042769;28;20046;-70
2023/07/02 05:36:05;;;;;;;78.88;74.38;;;15.90;99.90;;;;;;5023882;28;20044;-69
2023/07/02 05:38:30;;;;;;;64.22;60.20;;;16.00;99.90;;;;;;5024313;28;20041;-70
2023/07/02 05:40:57;;;;;;;122.85;116.25;;;16.00;99.90;;;;;;5023186;28;20038;-70
2023/07/02 05:43:22;;;;;;;139.20;132.43;;;16.00;99.90;;;;;;5027039;28;20431;-70
2023/07/02 05:45:51;;;;;;;190.45;181.70;;;16.00;99.90;;;;;;5021479;28;20111;-70
2023/07/02 05:48:16;;;;;;;103.50;98.25;;;15.90;99.90;;;;;;5024259;28;20049;-70
2023/07/02 05:50:42;;;;;;;220.68;210.80;;;15.90;99.90;;;;;;5019655;28;20052;-69
2023/07/02 05:53:09;;;;;;;161.35;153.63;;;15.90;99.90;;;;;;5026317;28;20080;-70
2023/07/02 05:55:35;;;;;;;152.52;145.30;;;15.80;99.90;;;;;;5007400;28;20111;-69
2023/07/02 05:58:02;;;;;;;96.97;92.00;;;15.80;99.90;;;;;;5009970;28;20584;-69
2023/07/02 06:00:31;;;;;;;149.75;142.52;;;15.90;99.90;;;;;;5023245;28;20841;-70
2023/07/02 06:02:57;;;;;;;133.60;126.90;;;16.00;99.90;;;;;;5023795;28;20509;-70
2023/07/02 06:05:22;;;;;;;107.30;101.60;;;16.00;99.90;;;;;;5024621;28;20047;-70
2023/07/02 06:07:48;;;;;;;127.47;120.18;;;16.10;99.90;;;;;;5023719;28;20045;-70
2023/07/02 06:10:14;;;;;;;204.52;192.15;;;16.00;99.90;;;;;;5021787;28;20051;-70
2023/07/02 06:12:40;;;;;;;99.75;94.20;;;16.00;99.90;;;;;;5003639;28;20037;-70
2023/07/02 06:15:06;;;;;;;93.20;88.07;;;16.10;99.90;;;;;;5026445;28;20497;-70
2023/07/02 06:17:31;;;;;;;104.07;98.57;;;16.30;99.90;;;;;;5018885;28;20445;-70
2023/07/02 06:19:57;;;;;;;151.90;143.93;;;16.40;99.90;;;;;;5023465;28;20045;-70
2023/07/02 06:22:23;;;;;;;158.93;151.45;;;16.70;99.90;;;;;;5023233;28;20399;-70
2023/07/02 06:24:49;;;;;;;217.30;207.02;;;17.00;99.90;;;;;;5017421;28;20045;-70
2023/07/02 06:27:14;;;;;;;172.13;163.82;;;17.30;99.90;;;;;;5007228;28;20417;-70
2023/07/02 06:29:40;;;;;;;116.55;110.68;;;17.60;99.90;;;;;;5038304;28;20045;-70
2023/07/02 06:32:06;;;;;;;124.68;118.40;;;17.70;99.90;;;;;;5024565;28;20079;-70
2023/07/02 06:34:32;;;;;;;202.43;192.68;;;17.60;99.90;;;;;;5022428;28;20045;-71
2023/07/02 06:36:57;;;;;;;99.97;94.80;;;17.70;99.90;;;;;;5022503;28;20937;-70
2023/07/02 06:39:23;;;;;;;77.97;73.57;;;17.70;99.90;;;;;;5038762;28;20926;-70
2023/07/02 06:41:49;;;;;;;106.28;101.13;;;17.70;99.90;;;;;;5022440;28;20037;-69
2023/07/02 06:44:14;;;;;;;85.88;81.25;;;17.50;99.90;;;;;;5023552;28;20053;-69
2023/07/02 06:46:40;;;;;;;81.88;77.18;;;18.40;99.90;;;;;;5024799;28;20382;-70
2023/07/02 06:49:06;;;;;;;119.97;113.70;;;19.30;99.90;;;;;;5024143;28;20044;-69
2023/07/02 06:51:34;;;;;;;76.97;72.93;;;20.20;99.90;;;;;;5017779;28;20473;-70
2023/07/02 06:53:59;;;;;;;135.55;128.52;;;20.70;99.90;;;;;;5031773;28;20060;-70
2023/07/02 06:56:25;;;;;;;162.95;154.75;;;20.90;99.90;;;;;;5007454;28;20540;-71
2023/07/02 06:58:51;;;;;;;142.20;135.43;;;21.10;99.90;;;;;;5017933;28;20042;-70
2023/07/02 07:01:16;;;;;;;175.63;167.20;;;20.80;99.90;;;;;;5019245;28;20048;-70
2023/07/02 07:03:42;;;;;;;86.15;81.78;;;21.20;99.90;;;;;;5015779;28;20069;-70
2023/07/02 07:06:08;;;;;;;65.07;61.35;;;21.40;98.10;;;;;;5018079;28;20143;-70
2023/07/02 07:08:36;;;;;;;76.90;72.75;;;21.60;98.70;;;;;;5003980;28;20208;-71
2023/07/02 07:11:02;;;;;;;65.03;61.33;;;21.70;96.70;;;;;;5037972;28;20056;-71
2023/07/02 07:13:29;;;;;;;85.55;80.93;;;21.20;97.30;;;;;;5022840;28;20069;-70
2023/07/02 07:15:54;;;;;;;72.18;68.47;;;21.10;97.70;;;;;;5039113;28;20069;-69
2023/07/02 07:18:20;;;;;;;72.60;68.50;;;21.20;97.10;;;;;;5020852;28;20837;-70
2023/07/02 07:20:45;;;;;;;55.17;52.03;;;21.50;97.80;;;;;;5023626;28;20151;-69
2023/07/02 07:23:11;;;;;;;96.50;90.32;;;21.80;97.00;;;;;;5027991;28;20120;-71
2023/07/02 07:25:37;;;;;;;56.88;53.70;;;22.20;95.90;;;;;;5023988;28;20516;-71
2023/07/02 07:28:02;;;;;;;63.53;59.60;;;22.30;94.00;;;;;;5025761;28;20497;-70
2023/07/02 07:30:28;;;;;;;52.53;49.22;;;22.40;92.60;;;;;;5026011;28;20599;-71
2023/07/02 07:32:54;;;;;;;53.08;49.80;;;22.30;93.80;;;;;;5025558;28;20076;-71
2023/07/02 07:35:23;;;;;;;52.22;49.13;;;21.80;94.10;;;;;;5025304;28;20498;-70
2023/07/02 07:37:49;;;;;;;77.78;73.60;;;21.40;94.00;;;;;;5020766;28;20050;-70
2023/07/02 07:40:15;;;;;;;69.30;65.15;;;21.10;93.90;;;;;;5024904;28;20098;-70
2023/07/02 07:42:42;;;;;;;41.60;38.85;;;21.20;92.70;;;;;;5038550;28;20056;-71
2023/07/02 07:45:09;;;;;;;39.05;36.50;;;21.20;93.50;;;;;;5012667;28;20086;-71
2023/07/02 07:47:35;;;;;;;55.15;52.03;;;20.70;92.50;;;;;;5020819;28;20042;-71
2023/07/02 07:50:00;;;;;;;47.28;44.55;;;21.00;94.10;;;;;;5008474;28;20056;-70
2023/07/02 07:52:27;;;;;;;41.75;39.10;;;21.50;94.20;;;;;;5027961;28;20048;-70
2023/07/02 07:54:53;;;;;;;65.03;61.40;;;21.50;92.90;;;;;;5024725;28;20409;-69
2023/07/02 07:57:18;;;;;;;41.67;39.35;;;21.40;92.40;;;;;;5019283;28;20038;-69
2023/07/02 07:59:44;;;;;;;44.25;41.53;;;21.00;93.60;;;;;;5025301;28;20045;-70
2023/07/02 08:02:10;;;;;;;74.88;70.82;;;21.20;93.30;;;;;;5011621;28;20470;-69
2023/07/02 08:04:35;;;;;;;38.17;35.70;;;21.10;92.80;;;;;;5028475;28;20041;-70
2023/07/02 08:07:04;;;;;;;31.75;29.58;;;20.60;93.80;;;;;;5024026;28;20075;-69
2023/07/02 08:09:29;;;;;;;50.63;47.75;;;20.00;94.30;;;;;;5020176;28;20130;-70
2023/07/02 08:11:55;;;;;;;47.60;44.85;;;19.50;94.50;;;;;;5044387;28;20175;-69
2023/07/02 08:14:21;;;;;;;82.75;78.47;;;19.10;95.80;;;;;;5010760;28;20452;-70
2023/07/02 08:16:46;;;;;;;106.88;101.30;;;18.80;97.70;;;;;;5025897;28;20360;-70
2023/07/02 08:19:12;;;;;;;123.63;117.03;;;18.90;98.20;;;;;;5023879;28;20171;-70
2023/07/02 08:21:38;;;;;;;60.60;57.42;;;19.00;98.40;;;;;;5027871;28;20147;-71
2023/07/02 08:24:04;;;;;;;96.20;91.55;;;18.90;97.60;;;;;;5007441;28;20047;-70
2023/07/02 08:26:30;;;;;;;95.18;90.65;;;18.80;98.60;;;;;;5042828;28;20045;-71
2023/07/02 08:28:56;;;;;;;82.53;77.97;;;18.70;99.90;;;;;;5026376;28;20048;-70
2023/07/02 08:31:22;;;;;;;108.28;103.03;;;19.10;99.90;;;;;;5023370;28;20739;-70
2023/07/02 08:33:47;;;;;;;62.88;59.45;;;19.00;99.40;;;;;;5026509;28;20045;-70
2023/07/02 08:36:13;;;;;;;91.72;87.13;;;18.70;99.90;;;;;;5026751;28;20053;-70
2023/07/02 08:38:41;;;;;;;62.95;59.35;;;18.60;99.90;;;;;;5011097;28;20052;-71
2023/07/02 08:41:07;;;;;;;105.95;99.53;;;18.50;99.90;;;;;;5020157;28;20120;-70
2023/07/02 08:43:35;;;;;;;78.53;74.03;;;18.40;99.90;;;;;;5014061;28;20065;-71
2023/07/02 08:46:01;;;;;;;65.30;61.40;;;18.10;99.90;;;;;;5020873;28;20480;-70
2023/07/02 08:48:29;;;;;;;107.40;101.90;;;17.80;99.90;;;;;;5005669;28;20179;-71
2023/07/02 08:50:55;;;;;;;79.35;75.13;;;17.80;99.90;;;;;;5026781;28;20045;-71
2023/07/02 08:53:25;;;;;;;85.55;81.18;;;17.70;99.90;;;;;;5023607;28;20037;-70
2023/07/02 08:55:51;;;;;;;131.30;125.18;;;17.80;99.90;;;;;;5026775;28;20458;-70
2023/07/02 08:58:16;;;;;;;84.43;80.13;;;18.00;99.90;;;;;;5041529;28;20061;-70
2023/07/02 09:01:09;;;;;;;66.88;63.17;;;18.50;99.90;;;;;;5044119;28;20371;-71
2023/07/02 09:03:39;;;;;;;98.00;92.95;;;18.80;99.90;;;;;;5018828;28;20041;-70
2023/07/02 09:06:09;;;;;;;57.40;54.10;;;18.90;99.90;;;;;;5021863;28;20132;-70
2023/07/02 09:08:36;;;;;;;103.28;98.30;;;18.90;99.90;;;;;;5027253;28;20088;-70
2023/07/02 09:11:19;;;;;;;74.72;70.85;;;18.70;99.90;;;;;;5035938;28;20044;-70
2023/07/02 09:13:58;;;;;;;71.97;68.07;;;18.60;99.90;;;;;;5009605;28;20041;-70
2023/07/02 09:16:33;;;;;;;65.55;61.67;;;19.00;99.90;;;;;;5024273;28;20044;-71
2023/07/02 09:19:07;;;;;;;64.13;60.65;;;19.60;99.90;;;;;;5009404;28;20042;-70
2023/07/02 09:21:48;;;;;;;74.53;70.47;;;20.20;99.90;;;;;;5026712;28;20092;-71
2023/07/02 09:24:25;;;;;;;91.75;86.93;;;20.50;99.90;;;;;;5023013;28;20585;-70
2023/07/02 09:26:56;;;;;;;159.60;152.05;;;20.70;98.40;;;;;;5027741;28;20049;-71
2023/07/02 09:29:28;;;;;;;140.35;134.02;;;20.70;94.70;;;;;;5040141;28;20391;-70
2023/07/02 09:31:54;;;;;;;99.53;94.40;;;20.40;95.10;;;;;;5027601;28;20394;-71
2023/07/02 09:34:26;;;;;;;82.10;78.18;;;20.10;96.60;;;;;;5026132;28;20084;-70
2023/07/02 09:36:51;;;;;;;142.30;135.60;;;20.10;98.00;;;;;;5026919;28;20117;-71
2023/07/02 09:39:30;;;;;;;116.38;110.85;;;20.50;97.60;;;;;;5022615;28;20545;-70
2023/07/02 09:41:57;;;;;;;142.82;136.25;;;20.80;97.60;;;;;;5022963;28;20048;-70
2023/07/02 09:44:30;;;;;;;152.50;145.38;;;20.90;97.60;;;;;;5038176;28;20091;-71
2023/07/02 09:47:10;;;;;;;164.02;155.23;;;20.70;96.10;;;;;;5011198;28;20053;-71
2023/07/02 09:49:44;;;;;;;144.73;138.30;;;20.30;96.50;;;;;;5021285;28;20052;-71
2023/07/02 09:52:11;;;;;;;142.07;135.40;;;20.00;98.40;;;;;;5024374;28;20045;-70
2023/07/02 09:54:37;;;;;;;134.18;127.88;;;20.20;97.10;;;;;;5026568;28;20045;-70
2023/07/02 09:57:04;;;;;;;164.07;156.40;;;20.20;96.10;;;;;;5025990;28;20507;-70
2023/07/02 09:59:30;;;;;;;194.85;186.10;;;20.00;96.30;;;;;;5025279;28;20033;-69
2023/07/02 10:01:56;;;;;;;184.20;175.55;;;19.80;97.30;;;;;;5009935;28;20083;-70
2023/07/02 10:04:23;;;;;;;189.57;181.05;;;19.60;97.10;;;;;;5026334;28;20041;-69
2023/07/02 10:06:54;;;;;;;177.60;169.45;;;19.60;97.80;;;;;;5027785;28;20057;-70
2023/07/02 10:09:33;;;;;;;146.90;140.02;;;19.70;98.00;;;;;;5025513;28;20029;-70
2023/07/02 10:11:59;;;;;;;102.47;97.43;;;19.80;97.10;;;;;;5026754;28;20041;-69
2023/07/02 10:14:24;;;;;;;145.77;139.02;;;20.10;95.50;;;;;;5016688;28;20041;-71
2023/07/02 10:16:55;;;;;;;182.20;173.23;;;20.20;95.50;;;;;;5010432;28;20117;-71
2023/07/02 10:19:21;;;;;;;206.02;196.75;;;20.40;96.60;;;;;;5015387;28;20127;-70
2023/07/02 10:22:00;;;;;;;80.70;76.45;;;20.60;95.90;;;;;;5034681;28;20033;-70
2023/07/02 10:24:26;;;;;;;112.38;107.30;;;20.70;93.70;;;;;;5017396;28;20049;-69
2023/07/02 10:27:02;;;;;;;122.47;116.70;;;20.40;95.20;;;;;;5026661;28;20049;-70
2023/07/02 10:29:29;;;;;;;107.22;101.88;;;20.10;95.50;;;;;;5018561;28;20056;-70
2023/07/02 10:31:56;;;;;;;173.63;163.55;;;20.00;94.00;;;;;;5025976;28;20046;-70
2023/07/02 10:34:35;;;;;;;142.98;136.40;;;20.00;93.90;;;;;;5019507;28;20624;-71
2023/07/02 10:37:04;;;;;;;120.28;113.63;;;20.00;93.40;;;;;;5015059;28;20033;-70
2023/07/02 10:39:31;;;;;;;214.10;204.25;;;19.90;94.50;;;;;;5024346;28;20048;-70
2023/07/02 10:42:07;;;;;;;155.43;148.40;;;20.00;95.50;;;;;;5021827;28;21396;-68
2023/07/02 10:44:33;;;;;;;132.73;126.60;;;20.40;95.00;;;;;;5025988;28;20041;-71
2023/07/02 10:46:59;;;;;;;87.93;83.53;;;20.80;95.30;;;;;;5023031;28;20056;-69
2023/07/02 10:49:31;;;;;;;24.05;22.38;;;21.30;95.00;;;;;;5026255;28;20033;-70
2023/07/02 10:52:01;;;;;;;62.53;58.97;;;21.50;93.70;;;;;;5039250;28;20084;-70
2023/07/02 10:54:42;;;;;;;147.93;140.93;;;21.50;93.60;;;;;;5031191;28;20045;-70
2023/07/02 10:57:09;;;;;;;200.40;191.18;;;21.30;93.00;;;;;;5026894;28;20033;-70
2023/07/02 10:59:35;;;;;;;171.40;163.65;;;21.20;92.20;;;;;;5013274;28;20120;-70
2023/07/02 11:02:03;;;;;;;188.80;180.27;;;21.10;92.20;;;;;;5026492;28;20038;-70
2023/07/02 11:04:33;;;;;;;190.32;181.80;;;20.90;92.20;;;;;;5029853;28;20047;-70
2023/07/02 11:06:59;;;;;;;248.35;237.25;;;20.70;92.40;;;;;;5020105;28;20046;-70
2023/07/02 11:09:25;;;;;;;181.73;169.40;;;20.50;91.20;;;;;;5046800;28;20048;-70
2023/07/02 11:11:53;;;;;;;101.53;96.63;;;20.20;92.80;;;;;;5029875;28;20045;-70
2023/07/02 11:14:31;;;;;;;106.00;100.78;;;20.00;93.40;;;;;;5012575;28;20061;-70
2023/07/02 11:16:57;;;;;;;107.38;102.35;;;20.00;94.30;;;;;;5031227;28;20034;-71
2023/07/02 11:19:23;;;;;;;174.75;166.43;;;20.00;94.60;;;;;;5024456;28;20095;-70
2023/07/02 11:21:56;;;;;;;154.20;146.10;;;20.10;95.40;;;;;;5040255;28;20041;-70
2023/07/02 11:24:32;;;;;;;133.63;127.55;;;20.30;94.70;;;;;;5029359;28;20444;-69
2023/07/02 11:27:02;;;;;;;80.22;76.20;;;20.30;92.50;;;;;;5030025;28;20092;-70
2023/07/02 11:29:38;;;;;;;186.05;177.48;;;20.30;93.40;;;;;;5025095;28;20037;-69
2023/07/02 11:32:11;;;;;;;86.95;82.57;;;20.40;93.00;;;;;;5029757;28;20149;-69
2023/07/02 11:34:38;;;;;;;95.28;90.68;;;20.30;93.10;;;;;;5023553;28;20103;-69
2023/07/02 11:37:04;;;;;;;180.48;172.35;;;20.10;92.50;;;;;;5020400;28;20125;-69
2023/07/02 11:39:31;;;;;;;70.45;66.97;;;20.20;95.60;;;;;;5029162;28;20823;-70
2023/07/02 11:41:56;;;;;;;77.38;73.65;;;20.50;93.90;;;;;;5018412;28;20042;-71
2023/07/02 11:44:22;;;;;;;161.30;153.95;;;20.60;94.20;;;;;;5025983;28;20041;-70
2023/07/02 11:46:48;;;;;;;190.57;181.73;;;20.70;95.00;;;;;;5027959;28;20049;-70
2023/07/02 11:49:14;;;;;;;174.75;166.75;;;20.90;94.30;;;;;;5029615;28;20474;-70
2023/07/02 11:51:41;;;;;;;291.48;278.35;;;21.00;93.40;;;;;;5045065;28;20524;-70
2023/07/02 11:54:07;;;;;;;262.60;250.88;;;21.10;92.80;;;;;;5025699;28;20358;-70
2023/07/02 11:56:33;;;;;;;210.88;201.25;;;21.00;90.90;;;;;;5028252;28;20044;-69
2023/07/02 11:58:59;;;;;;;272.17;259.27;;;20.80;90.40;;;;;;5011912;28;20069;-70
2023/07/02 12:01:25;;;;;;;231.65;220.70;;;20.50;90.50;;;;;;5002029;28;20073;-70
2023/07/02 12:03:51;;;;;;;297.35;283.75;;;20.40;92.50;;;;;;5034700;28;20073;-70
2023/07/02 12:06:17;;;;;;;208.20;198.60;;;20.60;92.10;;;;;;5023990;28;20476;-70
2023/07/02 12:08:42;;;;;;;150.70;143.38;;;20.50;92.10;;;;;;5041071;28;20110;-70
2023/07/02 12:11:08;;;;;;;169.00;161.13;;;20.60;93.20;;;;;;5027747;28;20120;-70
2023/07/02 12:13:34;;;;;;;198.50;189.18;;;20.80;93.30;;;;;;5045074;28;20409;-70